Terminal Aerodrome Forecast
Issued by NWS

Home | Current Version | Previous Version | Graphics & Text | Print | Product List | Glossary On
Versions: 1 2 3 4 5 6 7 8 9 10 11 12 13
000
FTUS43 KFGF 240800 AAA
TAFBJI
TAF AMD
KBJI 240845Z 2409/2506 28014G20KT 2SM -SN BKN015
      TEMPO 2409/2411 P6SM BKN025
     FM241100 29017G25KT P6SM OVC025
     FM241500 31019KT P6SM FEW250=

USA.gov is the U.S. government's official web portal to all federal, state and local government web resources and services.